Time;durP1;ratioP1;P1;durP2;ratioP2;P2;SDS_P1;SDS_P2;PMS_P1;PMS_P2;Temp;Humidity;BMP_temperature;BMP_pressure;BME280_temperature;BME280_humidity;BME280_pressure;Samples;Min_cycle;Max_cycle;Signal;HPM_P1;HPM_P2
2022/03/03 00:01:01;;;;;;;23.80;15.20;;;;;;;-1.95;100.00;96613.44;5032823;28;20064;-58
2022/03/03 00:03:30;;;;;;;23.15;15.13;;;;;;;-2.06;100.00;96613.91;5026520;28;20077;-58
2022/03/03 00:05:58;;;;;;;24.05;15.63;;;;;;;-2.09;100.00;96614.03;5021024;28;20067;-59
2022/03/03 00:08:27;;;;;;;23.73;16.08;;;;;;;-2.35;100.00;96619.41;5038016;28;20085;-58
2022/03/03 00:10:57;;;;;;;23.05;15.65;;;;;;;-2.29;100.00;96614.84;5041033;28;20119;-59
2022/03/03 00:13:26;;;;;;;22.58;15.45;;;;;;;-2.29;100.00;96614.84;5037808;28;20072;-59
2022/03/03 00:15:55;;;;;;;24.58;15.90;;;;;;;-2.38;100.00;96613.44;5035983;28;20069;-59
2022/03/03 00:18:24;;;;;;;26.13;16.57;;;;;;;-2.20;100.00;96613.63;5041298;28;20072;-60
2022/03/03 00:20:52;;;;;;;25.60;16.50;;;;;;;-2.38;100.00;96625.53;5039973;28;20517;-60
2022/03/03 00:23:20;;;;;;;23.45;15.35;;;;;;;-2.36;100.00;96623.75;5032923;28;20087;-60
2022/03/03 00:25:48;;;;;;;26.02;16.27;;;;;;;-2.36;100.00;96626.31;5039993;28;20711;-57
2022/03/03 00:28:17;;;;;;;24.30;16.15;;;;;;;-2.48;100.00;96622.50;5023725;28;20065;-58
2022/03/03 00:30:45;;;;;;;24.15;16.05;;;;;;;-2.30;100.00;96615.75;5008462;28;20072;-60
2022/03/03 00:33:15;;;;;;;25.40;16.08;;;;;;;-2.52;100.00;96620.09;5042919;28;20062;-60
2022/03/03 00:35:43;;;;;;;25.25;15.93;;;;;;;-2.56;100.00;96626.28;5034837;28;20088;-59
2022/03/03 00:38:12;;;;;;;26.88;16.73;;;;;;;-2.57;100.00;96628.03;5025314;28;20089;-58
2022/03/03 00:40:41;;;;;;;29.30;16.58;;;;;;;-2.74;100.00;96630.41;5021379;28;20064;-58
2022/03/03 00:43:09;;;;;;;28.15;15.77;;;;;;;-2.63;100.00;96630.84;5025581;28;20053;-55
2022/03/03 00:45:38;;;;;;;25.00;15.98;;;;;;;-2.75;100.00;96634.75;5024588;28;20060;-58
2022/03/03 00:48:06;;;;;;;24.35;15.88;;;;;;;-2.69;100.00;96631.06;5031620;28;20076;-59
2022/03/03 00:50:36;;;;;;;25.75;15.85;;;;;;;-2.65;100.00;96627.47;5022643;28;20089;-59
2022/03/03 00:53:05;;;;;;;24.70;15.55;;;;;;;-2.65;100.00;96627.47;5024912;28;20068;-54
2022/03/03 00:55:34;;;;;;;28.90;17.23;;;;;;;-2.60;100.00;96622.13;5020184;28;20087;-58
2022/03/03 00:58:03;;;;;;;28.95;17.17;;;;;;;-2.59;100.00;96616.91;5031500;28;20507;-58
2022/03/03 01:00:31;;;;;;;26.70;17.15;;;;;;;-2.71;100.00;96619.97;5040425;28;20087;-59
2022/03/03 01:03:00;;;;;;;28.05;17.67;;;;;;;-2.70;100.00;96616.50;5041226;28;20095;-57
2022/03/03 01:05:28;;;;;;;25.63;17.00;;;;;;;-2.66;100.00;96620.63;5049143;28;20076;-57
2022/03/03 01:07:59;;;;;;;27.52;16.98;;;;;;;-2.79;100.00;96624.56;5043098;28;20071;-57
2022/03/03 01:10:27;;;;;;;24.60;16.30;;;;;;;-2.85;100.00;96617.94;5005611;28;20069;-58
2022/03/03 01:12:56;;;;;;;25.45;16.17;;;;;;;-2.87;100.00;96622.31;5022847;28;20065;-57
2022/03/03 01:15:24;;;;;;;25.17;16.42;;;;;;;-2.96;100.00;96617.47;5019017;28;20616;-58
2022/03/03 01:17:52;;;;;;;31.33;17.90;;;;;;;-2.99;100.00;96622.78;5017118;28;20061;-57
2022/03/03 01:20:21;;;;;;;25.42;16.85;;;;;;;-3.03;100.00;96606.56;5026710;28;20072;-57
2022/03/03 01:22:49;;;;;;;26.10;17.42;;;;;;;-3.11;100.00;96604.28;5017935;28;20433;-57
2022/03/03 01:25:19;;;;;;;28.83;18.08;;;;;;;-3.17;100.00;96601.91;5035194;28;20068;-56
2022/03/03 01:27:47;;;;;;;27.23;17.47;;;;;;;-3.11;100.00;96596.53;5037709;28;20069;-57
2022/03/03 01:30:15;;;;;;;29.15;18.08;;;;;;;-3.07;100.00;96594.69;5037093;28;20487;-58
2022/03/03 01:32:43;;;;;;;30.55;17.17;;;;;;;-3.14;100.00;96586.31;5034491;28;21147;-58
2022/03/03 01:35:12;;;;;;;28.38;17.40;;;;;;;-3.15;100.00;96589.81;5023127;28;20075;-58
2022/03/03 01:37:40;;;;;;;28.05;17.73;;;;;;;-3.14;100.00;96583.75;5037258;28;20408;-57
2022/03/03 01:40:09;;;;;;;39.22;20.80;;;;;;;-3.22;100.00;96584.97;5018971;28;20058;-59
2022/03/03 01:42:39;;;;;;;43.30;22.47;;;;;;;-3.06;100.00;96588.63;5032196;28;20563;-55
2022/03/03 01:45:09;;;;;;;35.67;20.20;;;;;;;-3.11;100.00;96585.38;5021391;28;20484;-51
2022/03/03 01:47:37;;;;;;;31.67;18.17;;;;;;;-3.41;100.00;96589.94;5023061;28;20081;-56
2022/03/03 01:50:06;;;;;;;29.10;16.27;;;;;;;-3.46;100.00;96592.69;5040756;28;20496;-53
2022/03/03 01:52:35;;;;;;;26.83;16.80;;;;;;;-3.43;100.00;96589.19;5035565;28;20072;-55
2022/03/03 01:55:04;;;;;;;28.80;17.60;;;;;;;-3.38;100.00;96582.94;5019916;28;20065;-57
2022/03/03 01:57:34;;;;;;;26.33;17.25;;;;;;;-3.51;100.00;96591.16;5025233;28;20460;-57
2022/03/03 02:00:05;;;;;;;25.92;17.95;;;;;;;-3.37;100.00;96589.78;5025330;28;20675;-57
2022/03/03 02:02:33;;;;;;;27.30;16.08;;;;;;;-3.45;100.00;96580.66;5021515;28;20093;-56
2022/03/03 02:05:02;;;;;;;27.58;17.88;;;;;;;-3.31;100.00;96591.28;5021405;28;20817;-57
2022/03/03 02:07:31;;;;;;;25.63;17.33;;;;;;;-3.32;100.00;96583.63;5020252;28;20065;-57
2022/03/03 02:10:01;;;;;;;25.60;16.50;;;;;;;-3.43;100.00;96590.00;5017404;28;20529;-57
2022/03/03 02:12:30;;;;;;;27.63;15.75;;;;;;;-3.65;100.00;96579.66;5018691;28;20085;-55
2022/03/03 02:14:59;;;;;;;24.55;16.52;;;;;;;-3.68;100.00;96579.75;5021146;28;20061;-56
2022/03/03 02:17:29;;;;;;;24.80;15.85;;;;;;;-3.62;100.00;96581.25;5019763;28;20085;-56
2022/03/03 02:19:57;;;;;;;24.33;15.20;;;;;;;-3.63;100.00;96579.59;5027835;28;20073;-52
2022/03/03 02:22:27;;;;;;;24.42;15.93;;;;;;;-3.70;100.00;96576.38;5023037;28;20065;-57
2022/03/03 02:24:55;;;;;;;26.97;16.73;;;;;;;-3.62;100.00;96573.53;5017675;28;20061;-56
2022/03/03 02:27:24;;;;;;;28.92;16.05;;;;;;;-3.55;100.00;96566.41;5023230;28;20069;-57
2022/03/03 02:29:53;;;;;;;26.08;16.23;;;;;;;-3.60;100.00;96574.31;5022000;28;20069;-55
2022/03/03 02:32:21;;;;;;;25.70;16.90;;;;;;;-3.63;100.00;96577.84;5036548;28;20080;-57
2022/03/03 02:34:49;;;;;;;25.75;17.13;;;;;;;-3.76;100.00;96571.44;5035612;28;21909;-56
2022/03/03 02:37:17;;;;;;;27.67;17.00;;;;;;;-3.85;100.00;96576.94;5020250;28;20084;-54
2022/03/03 02:39:47;;;;;;;26.85;16.60;;;;;;;-3.82;100.00;96574.22;5014865;28;20465;-57
2022/03/03 02:42:15;;;;;;;24.40;16.03;;;;;;;-3.72;100.00;96575.59;5023438;28;20069;-55
2022/03/03 02:44:43;;;;;;;26.35;16.63;;;;;;;-3.75;100.00;96565.41;5024282;28;20092;-58
2022/03/03 02:47:12;;;;;;;26.40;16.25;;;;;;;-3.85;100.00;96571.78;5029138;28;20088;-57
2022/03/03 02:49:40;;;;;;;22.95;16.25;;;;;;;-3.90;100.00;96569.34;5034255;28;20053;-55
2022/03/03 02:52:08;;;;;;;28.35;16.70;;;;;;;-3.78;100.00;96559.53;5026225;28;20474;-57
2022/03/03 02:54:36;;;;;;;24.83;15.68;;;;;;;-3.86;100.00;96559.78;5018842;28;20076;-54
2022/03/03 02:59:52;;;;;;;26.58;15.93;;;;;;;-3.99;100.00;96556.81;5017718;28;20073;-55
2022/03/03 03:02:21;;;;;;;23.83;15.85;;;;;;;-4.07;100.00;96554.50;5021231;28;20073;-57
2022/03/03 03:04:49;;;;;;;25.95;15.50;;;;;;;-3.96;100.00;96554.13;5017183;28;20065;-59
2022/03/03 03:07:18;;;;;;;28.90;16.13;;;;;;;-3.96;100.00;96561.00;5023525;28;20072;-58
2022/03/03 03:09:46;;;;;;;22.85;15.57;;;;;;;-4.07;100.00;96563.97;5016024;28;20084;-59
2022/03/03 03:12:16;;;;;;;26.40;17.08;;;;;;;-4.10;100.00;96567.47;5021191;28;20073;-58
2022/03/03 03:14:44;;;;;;;27.20;16.15;;;;;;;-4.12;100.00;96566.72;5017686;28;20053;-56
2022/03/03 03:17:12;;;;;;;24.50;16.15;;;;;;;-3.98;100.00;96573.13;5023191;28;20069;-57
2022/03/03 03:19:41;;;;;;;22.23;14.75;;;;;;;-4.18;100.00;96569.47;5030800;28;20095;-55
2022/03/03 03:22:09;;;;;;;30.40;16.10;;;;;;;-4.35;100.00;96564.06;5023470;28;20472;-55
2022/03/03 03:24:37;;;;;;;22.58;15.40;;;;;;;-4.42;100.00;96560.84;5017247;28;20087;-56
2022/03/03 03:27:06;;;;;;;23.20;15.10;;;;;;;-4.31;100.00;96565.63;5018304;28;20150;-56
2022/03/03 03:29:36;;;;;;;22.50;14.85;;;;;;;-4.27;100.00;96561.22;5014418;28;20069;-59
2022/03/03 03:32:05;;;;;;;24.40;15.55;;;;;;;-4.31;100.00;96555.34;5003423;28;20084;-59
2022/03/03 03:34:33;;;;;;;25.88;15.40;;;;;;;-4.30;100.00;96551.91;5018138;28;20066;-56
2022/03/03 03:37:01;;;;;;;26.13;16.10;;;;;;;-4.25;100.00;96554.31;5027245;28;20072;-58
2022/03/03 03:39:30;;;;;;;24.95;16.08;;;;;;;-4.31;100.00;96532.19;5035817;28;20064;-54
2022/03/03 03:41:58;;;;;;;28.77;16.75;;;;;;;-4.24;100.00;96533.66;5028465;28;20081;-58
2022/03/03 03:44:26;;;;;;;28.70;16.55;;;;;;;-4.23;100.00;96537.06;5019066;28;20069;-57
2022/03/03 03:46:56;;;;;;;28.98;17.48;;;;;;;-4.38;100.00;96546.97;5023188;28;20164;-57
2022/03/03 03:49:24;;;;;;;26.17;16.37;;;;;;;-4.50;100.00;96544.84;5018831;28;20069;-58
2022/03/03 03:51:53;;;;;;;27.23;16.38;;;;;;;-4.42;100.00;96524.00;5019783;28;20060;-58
2022/03/03 03:54:21;;;;;;;25.55;16.42;;;;;;;-4.39;100.00;96524.72;5027337;28;20081;-56
2022/03/03 03:56:49;;;;;;;28.10;16.67;;;;;;;-4.33;100.00;96523.69;5037130;28;20069;-55
2022/03/03 03:59:18;;;;;;;23.85;16.60;;;;;;;-4.34;100.00;96524.56;5034758;28;20081;-52
2022/03/03 04:01:46;;;;;;;28.38;17.33;;;;;;;-4.36;100.00;96519.47;5013418;28;20069;-56
2022/03/03 04:04:16;;;;;;;27.25;17.75;;;;;;;-4.48;100.00;96519.88;5034759;28;20068;-56
2022/03/03 04:06:44;;;;;;;27.20;17.67;;;;;;;-4.55;100.00;96520.97;5037472;28;20079;-59
2022/03/03 04:09:13;;;;;;;30.35;17.40;;;;;;;-4.65;100.00;96528.16;5031391;28;20823;-58
2022/03/03 04:11:41;;;;;;;26.92;17.23;;;;;;;-4.57;100.00;96517.63;4996696;28;20521;-59
2022/03/03 04:14:09;;;;;;;28.50;16.52;;;;;;;-4.56;100.00;96522.72;5040883;28;20082;-57
2022/03/03 04:16:37;;;;;;;26.38;16.75;;;;;;;-4.58;100.00;96527.09;5028489;28;20523;-56
2022/03/03 04:19:06;;;;;;;26.58;16.75;;;;;;;-4.66;100.00;96523.06;5027373;28;20070;-57
2022/03/03 04:21:36;;;;;;;27.60;17.08;;;;;;;-4.55;100.00;96524.38;5021624;28;20073;-56
2022/03/03 04:24:06;;;;;;;24.67;16.10;;;;;;;-4.61;100.00;96513.47;5028764;28;20527;-57
2022/03/03 04:26:34;;;;;;;28.13;16.70;;;;;;;-4.66;100.00;96512.78;5033791;28;20061;-57
2022/03/03 04:29:02;;;;;;;25.52;16.77;;;;;;;-4.57;100.00;96521.03;5004807;28;20074;-54
2022/03/03 04:31:31;;;;;;;25.90;17.17;;;;;;;-4.55;100.00;96518.41;5013610;28;20049;-55
2022/03/03 04:34:00;;;;;;;28.10;18.17;;;;;;;-4.58;100.00;96524.53;5032936;28;20061;-56
2022/03/03 04:36:28;;;;;;;31.08;18.08;;;;;;;-4.68;100.00;96524.84;5036453;28;20065;-55
2022/03/03 04:38:58;;;;;;;27.52;17.70;;;;;;;-4.89;100.00;96523.81;5035080;28;20069;-56
2022/03/03 04:41:26;;;;;;;28.43;17.53;;;;;;;-4.95;100.00;96522.31;5036358;28;20067;-57
2022/03/03 04:43:54;;;;;;;29.35;18.58;;;;;;;-4.84;100.00;96521.94;5028608;28;20526;-56
2022/03/03 04:46:23;;;;;;;30.55;18.35;;;;;;;-4.91;100.00;96516.16;5034074;28;20072;-58
2022/03/03 04:48:59;;;;;;;33.47;18.08;;;;;;;-4.97;100.00;96521.50;5024291;28;20099;-55
2022/03/03 04:51:28;;;;;;;26.85;17.65;;;;;;;-4.91;100.00;96511.03;5018922;28;20061;-54
2022/03/03 04:53:58;;;;;;;26.35;17.70;;;;;;;-4.87;100.00;96507.44;5017397;28;20540;-56
2022/03/03 04:56:26;;;;;;;28.13;17.17;;;;;;;-4.96;100.00;96497.47;5021294;28;20084;-55
2022/03/03 04:58:54;;;;;;;27.30;16.60;;;;;;;-5.01;100.00;96495.03;5007310;28;20306;-57
2022/03/03 05:01:22;;;;;;;29.58;17.77;;;;;;;-4.92;100.00;96495.63;5038426;28;20112;-56
2022/03/03 05:03:51;;;;;;;34.80;19.30;;;;;;;-5.03;100.00;96498.53;5038475;28;20080;-54
2022/03/03 05:06:19;;;;;;;26.90;18.25;;;;;;;-4.96;100.00;96494.88;5030975;28;20458;-51
2022/03/03 05:08:48;;;;;;;34.22;18.95;;;;;;;-4.85;100.00;96484.25;5025357;28;20068;-58
2022/03/03 05:11:17;;;;;;;29.77;17.48;;;;;;;-5.02;100.00;96487.41;5038824;28;20073;-55
2022/03/03 05:13:46;;;;;;;30.25;18.17;;;;;;;-5.07;100.00;96487.53;5040556;28;20563;-57
2022/03/03 05:16:14;;;;;;;38.15;18.92;;;;;;;-5.00;100.00;96477.88;5026621;28;20069;-56
2022/03/03 05:18:42;;;;;;;26.75;17.20;;;;;;;-4.82;100.00;96468.72;5013360;28;20400;-58
2022/03/03 05:21:11;;;;;;;28.27;18.25;;;;;;;-4.81;100.00;96470.41;5037210;28;20083;-53
2022/03/03 05:23:39;;;;;;;33.22;19.05;;;;;;;-4.88;100.00;96469.78;5036440;28;20088;-56
2022/03/03 05:26:08;;;;;;;33.33;17.92;;;;;;;-4.81;100.00;96475.56;5020881;28;20085;-53
2022/03/03 05:28:38;;;;;;;29.65;17.52;;;;;;;-4.79;100.00;96469.44;5036260;28;20068;-54
2022/03/03 05:31:06;;;;;;;27.77;17.70;;;;;;;-4.96;100.00;96466.59;5027359;28;20069;-58
2022/03/03 05:33:35;;;;;;;30.10;17.85;;;;;;;-4.75;100.00;96472.75;5024251;28;20084;-57
2022/03/03 05:36:05;;;;;;;30.17;17.63;;;;;;;-4.77;100.00;96465.09;5029581;28;20067;-57
2022/03/03 05:38:34;;;;;;;29.77;18.80;;;;;;;-4.86;100.00;96464.56;5039629;28;20095;-53
2022/03/03 05:41:04;;;;;;;30.73;17.77;;;;;;;-5.10;100.00;96459.34;5043243;28;20151;-55
2022/03/03 05:43:32;;;;;;;30.48;17.98;;;;;;;-5.24;100.00;96456.38;5040273;28;20080;-53
2022/03/03 05:46:03;;;;;;;28.77;18.65;;;;;;;-5.02;100.00;96464.25;5039351;28;20061;-55
2022/03/03 05:48:31;;;;;;;30.85;18.65;;;;;;;-5.05;100.00;96469.50;5040768;28;20072;-53
2022/03/03 05:50:59;;;;;;;31.48;17.55;;;;;;;-5.06;100.00;96463.50;5040054;28;20736;-55
2022/03/03 05:53:28;;;;;;;29.85;19.05;;;;;;;-5.17;100.00;96465.56;5039091;28;20091;-52
2022/03/03 05:55:59;;;;;;;29.05;17.92;;;;;;;-5.13;100.00;96469.72;5040920;28;20081;-52
2022/03/03 05:58:30;;;;;;;29.42;18.60;;;;;;;-5.15;100.00;96458.66;5028027;28;20080;-53
2022/03/03 06:00:59;;;;;;;32.35;18.98;;;;;;;-5.03;100.00;96465.13;5035749;28;20068;-52
2022/03/03 06:03:31;;;;;;;30.40;18.30;;;;;;;-4.94;100.00;96467.41;5030989;28;20068;-57
2022/03/03 06:06:02;;;;;;;28.70;18.85;;;;;;;-4.90;100.00;96463.84;5035722;28;20487;-53
2022/03/03 06:08:37;;;;;;;33.38;19.88;;;;;;;-4.68;100.00;96463.97;5039534;28;20096;-55
2022/03/03 06:11:06;;;;;;;30.98;18.30;;;;;;;-4.83;100.00;96462.72;5036207;28;20484;-57
2022/03/03 06:13:37;;;;;;;29.20;18.35;;;;;;;-4.82;100.00;96458.44;5021771;28;20072;-58
2022/03/03 06:16:06;;;;;;;28.75;17.95;;;;;;;-4.65;100.00;96455.28;5016822;28;20076;-58
2022/03/03 06:18:37;;;;;;;30.25;17.30;;;;;;;-4.48;100.00;96470.16;5015630;28;20065;-57
2022/03/03 06:21:06;;;;;;;29.67;19.20;;;;;;;-4.51;100.00;96460.78;5016798;28;20072;-59
2022/03/03 06:23:34;;;;;;;29.50;18.33;;;;;;;-4.57;100.00;96454.16;5018911;28;20081;-59
2022/03/03 06:26:05;;;;;;;31.42;18.85;;;;;;;-4.33;100.00;96459.34;5021092;28;20188;-58
2022/03/03 06:28:34;;;;;;;29.77;17.88;;;;;;;-4.14;100.00;96455.19;5035068;28;20064;-60
2022/03/03 06:31:04;;;;;;;35.17;19.67;;;;;;;-4.06;100.00;96449.75;5026585;28;20104;-57
2022/03/03 06:33:33;;;;;;;28.58;19.23;;;;;;;-3.82;100.00;96458.31;5026887;28;20247;-58
2022/03/03 06:36:03;;;;;;;30.80;19.65;;;;;;;-3.65;100.00;96449.94;5035553;28;20072;-55
2022/03/03 06:38:31;;;;;;;37.83;20.25;;;;;;;-3.53;100.00;96441.75;5036827;28;20068;-58
2022/03/03 06:41:05;;;;;;;32.03;19.55;;;;;;;-3.36;100.00;96436.78;5020536;28;20095;-58
2022/03/03 06:43:35;;;;;;;34.07;20.53;;;;;;;-3.14;100.00;96433.34;5021413;28;20068;-60
2022/03/03 06:46:04;;;;;;;33.45;20.00;;;;;;;-3.22;100.00;96425.06;5021024;28;20472;-59
2022/03/03 06:48:32;;;;;;;30.30;18.27;;;;;;;-3.04;100.00;96424.31;5024359;28;20049;-59
2022/03/03 06:51:04;;;;;;;31.67;19.30;;;;;;;-2.76;100.00;96420.59;5007447;28;20057;-58
2022/03/03 06:53:35;;;;;;;30.10;20.10;;;;;;;-2.42;100.00;96412.25;5019607;28;20081;-57
2022/03/03 06:56:05;;;;;;;32.60;18.80;;;;;;;-2.33;100.00;96409.28;5023828;28;20082;-58
2022/03/03 06:58:34;;;;;;;35.78;19.55;;;;;;;-2.26;100.00;96402.94;5026595;28;20541;-56
2022/03/03 07:01:05;;;;;;;32.35;19.73;;;;;;;-1.97;100.00;96404.19;5011693;28;20543;-56
2022/03/03 07:03:34;;;;;;;34.03;19.50;;;;;;;-1.87;100.00;96404.63;5024109;28;20073;-57
2022/03/03 07:06:04;;;;;;;29.65;19.27;;;;;;;-1.81;100.00;96406.09;5036984;28;20069;-56
2022/03/03 07:08:34;;;;;;;32.45;20.00;;;;;;;-1.80;100.00;96400.84;5033965;28;20084;-56
2022/03/03 07:11:02;;;;;;;31.17;19.50;;;;;;;-1.69;100.00;96400.34;5037448;28;20076;-54
2022/03/03 07:13:30;;;;;;;30.00;19.23;;;;;;;-1.79;100.00;96392.19;5026591;28;20532;-53
2022/03/03 07:16:18;;;;;;;32.72;19.00;;;;;;;-1.64;100.00;96389.81;5017791;28;20065;-57
2022/03/03 07:18:50;;;;;;;33.00;20.00;;;;;;;-1.29;100.00;96388.13;5016133;28;20068;-58
2022/03/03 07:21:25;;;;;;;32.35;19.77;;;;;;;-1.21;100.00;96386.81;5023794;28;20076;-60
2022/03/03 07:24:02;;;;;;;31.73;20.38;;;;;;;-0.93;100.00;96388.03;5021146;28;20065;-51
2022/03/03 07:26:32;;;;;;;36.33;20.98;;;;;;;-0.82;100.00;96385.78;5026126;28;20535;-54
2022/03/03 07:29:01;;;;;;;87.07;23.57;;;;;;;-0.70;100.00;96393.84;5025883;28;20080;-62
2022/03/03 07:31:32;;;;;;;47.13;22.33;;;;;;;-0.32;100.00;96404.81;5008929;28;20080;-59
2022/03/03 07:34:01;;;;;;;46.78;21.02;;;;;;;-0.03;100.00;96421.47;5014699;28;20065;-58
2022/03/03 07:36:40;;;;;;;30.65;20.08;;;;;;;0.09;100.00;96420.78;5018669;28;20065;-59
2022/03/03 07:39:12;;;;;;;31.70;20.02;;;;;;;0.20;100.00;96428.81;5012926;28;20076;-60
2022/03/03 07:41:42;;;;;;;31.92;20.30;;;;;;;0.40;100.00;96430.34;5024883;28;20084;-60
2022/03/03 07:44:11;;;;;;;30.63;19.10;;;;;;;0.03;100.00;96446.19;5039194;28;20083;-56
2022/03/03 07:46:39;;;;;;;33.58;19.75;;;;;;;0.01;100.00;96435.91;5017331;28;20073;-56
2022/03/03 07:49:07;;;;;;;28.70;19.40;;;;;;;0.25;100.00;96441.56;5032413;28;20065;-56
2022/03/03 07:51:37;;;;;;;29.48;18.30;;;;;;;0.29;100.00;96435.28;5030569;28;20069;-56
2022/03/03 07:54:05;;;;;;;30.13;19.57;;;;;;;0.55;100.00;96427.84;5026812;28;20080;-57
2022/03/03 07:56:41;;;;;;;33.50;21.13;;;;;;;0.64;100.00;96422.97;5027728;28;20641;-58
2022/03/03 07:59:12;;;;;;;31.70;19.83;;;;;;;0.78;100.00;96413.59;5026787;28;20544;-59
2022/03/03 08:01:40;;;;;;;31.77;19.75;;;;;;;0.99;100.00;96406.34;5022363;28;20061;-61
2022/03/03 08:04:11;;;;;;;32.45;19.52;;;;;;;0.93;100.00;96404.97;5023990;28;20080;-61
2022/03/03 08:06:40;;;;;;;;;;;;;;;1.43;100.00;96407.22;5016250;28;20126;-62
2022/03/03 08:09:09;;;;;;;33.30;18.92;;;;;;;1.27;100.00;96405.59;5018951;28;19965;-61
2022/03/03 08:11:40;;;;;;;33.33;20.58;;;;;;;1.55;100.00;96397.00;5016759;28;20085;-61
2022/03/03 08:14:09;;;;;;;30.98;20.10;;;;;;;1.82;100.00;96392.75;5014727;28;20077;-60
2022/03/03 08:16:38;;;;;;;34.28;19.30;;;;;;;2.06;100.00;96390.44;5035566;28;20069;-61
2022/03/03 08:19:07;;;;;;;35.30;20.15;;;;;;;2.02;100.00;96385.53;5024223;28;20097;-58
2022/03/03 08:21:35;;;;;;;31.15;19.52;;;;;;;2.18;100.00;96395.84;5025958;28;20068;-58
2022/03/03 08:24:05;;;;;;;32.22;19.83;;;;;;;2.20;100.00;96389.59;5041942;28;20599;-61
2022/03/03 08:26:35;;;;;;;31.85;20.33;;;;;;;2.53;100.00;96388.41;5030230;28;20081;-61
2022/03/03 08:29:03;;;;;;;31.52;19.50;;;;;;;2.43;100.00;96397.75;5026533;28;20077;-60
2022/03/03 08:31:36;;;;;;;29.58;18.95;;;;;;;2.74;100.00;96394.03;5028961;28;20077;-59
2022/03/03 08:34:12;;;;;;;30.65;19.75;;;;;;;2.52;100.00;96394.56;5023355;28;20057;-61
2022/03/03 08:36:46;;;;;;;31.88;19.77;;;;;;;2.59;100.00;96382.84;5039669;28;20060;-63
2022/03/03 08:39:18;;;;;;;32.25;19.60;;;;;;;2.76;100.00;96382.59;5038722;28;20061;-60
2022/03/03 08:41:46;;;;;;;32.75;19.80;;;;;;;2.85;100.00;96379.38;5024038;28;20060;-60
2022/03/03 08:44:33;;;;;;;33.17;19.08;;;;;;;3.08;100.00;96366.63;5023745;28;20046;-62
2022/03/03 08:47:03;;;;;;;27.55;19.38;;;;;;;3.16;100.00;96361.75;5052061;28;20072;-60
2022/03/03 08:49:37;;;;;;;29.48;19.55;;;;;;;3.35;100.00;96368.34;5037219;28;20109;-61
2022/03/03 08:52:06;;;;;;;32.22;18.65;;;;;;;3.21;100.00;96364.88;5032212;28;20076;-63
2022/03/03 08:54:36;;;;;;;28.27;17.27;;;;;;;3.57;100.00;96360.75;5041484;28;20045;-62
2022/03/03 08:57:04;;;;;;;26.87;17.90;;;;;;;3.61;100.00;96362.19;5038760;28;20041;-63
2022/03/03 08:59:33;;;;;;;29.63;17.80;;;;;;;3.80;100.00;96365.22;5035243;28;20060;-61
2022/03/03 09:02:01;;;;;;;23.88;17.35;;;;;;;4.17;100.00;96354.03;5061623;28;20536;-64
2022/03/03 09:04:30;;;;;;;25.17;16.88;;;;;;;4.20;100.00;96349.41;5062809;28;20045;-62
2022/03/03 09:06:59;;;;;;;27.02;17.63;;;;;;;4.26;100.00;96351.56;5061169;28;20045;-61
2022/03/03 09:09:27;;;;;;;23.50;16.25;;;;;;;4.18;100.00;96353.91;5055528;28;20041;-62
2022/03/03 09:12:04;;;;;;;28.00;17.95;;;;;;;4.19;100.00;96349.50;5060662;28;20048;-63
2022/03/03 09:14:34;;;;;;;23.77;17.35;;;;;;;4.18;100.00;96350.47;5054405;28;20041;-62
2022/03/03 09:17:02;;;;;;;27.23;17.07;;;;;;;4.15;100.00;96353.28;5050573;28;20427;-63
2022/03/03 09:19:30;;;;;;;38.03;26.20;;;;;;;4.41;100.00;96357.50;5031323;28;20452;-62
2022/03/03 09:21:59;;;;;;;24.83;17.35;;;;;;;4.23;100.00;96358.78;5040262;28;20400;-60
2022/03/03 09:24:27;;;;;;;40.83;26.95;;;;;;;4.45;100.00;96350.28;5039776;28;20068;-60
2022/03/03 09:26:55;;;;;;;26.63;18.67;;;;;;;4.85;100.00;96357.84;5035933;28;20523;-62
2022/03/03 09:29:26;;;;;;;40.72;26.08;;;;;;;4.72;100.00;96350.09;5019489;28;20073;-59
2022/03/03 09:31:55;;;;;;;26.30;17.77;;;;;;;4.82;100.00;96345.84;5030281;28;21319;-63
2022/03/03 09:34:23;;;;;;;32.75;22.40;;;;;;;4.88;100.00;96344.56;5024681;28;20163;-61
2022/03/03 09:36:52;;;;;;;27.13;18.77;;;;;;;5.28;100.00;96350.28;5024160;28;20064;-61
2022/03/03 09:39:20;;;;;;;31.92;18.98;;;;;;;5.33;100.00;96342.91;5013033;28;20084;-61
2022/03/03 09:41:48;;;;;;;25.45;18.20;;;;;;;5.18;100.00;96349.31;5024671;28;20069;-62
2022/03/03 09:44:21;;;;;;;25.35;17.65;;;;;;;5.22;100.00;96346.34;5021643;28;20080;-62
2022/03/03 09:46:51;;;;;;;26.25;17.75;;;;;;;5.51;100.00;96342.50;5026255;28;20361;-63
2022/03/03 09:49:20;;;;;;;35.72;24.20;;;;;;;5.57;100.00;96340.22;5040616;28;20068;-63
2022/03/03 09:51:50;;;;;;;36.10;22.02;;;;;;;5.77;100.00;96333.47;5024153;28;20076;-63
2022/03/03 09:54:18;;;;;;;32.13;20.80;;;;;;;5.82;100.00;96331.34;5033668;28;20067;-62
2022/03/03 09:56:47;;;;;;;28.35;19.17;;;;;;;5.97;99.47;96333.75;5045567;28;20075;-63
2022/03/03 09:59:15;;;;;;;25.20;19.00;;;;;;;5.90;95.87;96331.59;5043827;28;20530;-63
2022/03/03 10:01:46;;;;;;;20.08;15.00;;;;;;;5.86;76.42;96331.94;5024138;28;20524;-62
2022/03/03 10:04:19;;;;;;;22.92;15.73;;;;;;;5.85;71.48;96332.88;5027152;28;20065;-62
2022/03/03 10:06:48;;;;;;;28.88;15.65;;;;;;;5.99;72.20;96332.69;5024930;28;20068;-63
2022/03/03 10:09:17;;;;;;;20.15;13.75;;;;;;;6.12;66.54;96322.09;5022456;28;20088;-65
2022/03/03 10:12:02;;;;;;;18.58;14.18;;;;;;;6.14;69.24;96323.63;5024213;28;20091;-64
2022/03/03 10:14:31;;;;;;;22.85;15.13;;;;;;;6.18;76.72;96316.38;5026199;28;20596;-63
2022/03/03 10:17:01;;;;;;;21.85;15.77;;;;;;;6.38;77.01;96323.47;5026156;28;20084;-62
2022/03/03 10:19:53;;;;;;;21.17;15.30;;;;;;;6.38;68.26;96315.63;5013153;28;20064;-64
2022/03/03 10:22:25;;;;;;;22.63;14.38;;;;;;;6.98;65.86;96316.00;5035446;28;20061;-62
2022/03/03 10:24:54;;;;;;;17.48;12.88;;;;;;;6.74;60.64;96313.59;5038594;28;20060;-64
2022/03/03 10:27:22;;;;;;;17.30;12.23;;;;;;;6.87;59.58;96306.41;5043517;28;20068;-63
2022/03/03 10:29:51;;;;;;;18.63;12.32;;;;;;;7.16;56.89;96300.59;5037007;28;20460;-63
2022/03/03 10:32:28;;;;;;;18.65;12.27;;;;;;;7.09;53.17;96307.28;5037386;28;20081;-62
2022/03/03 10:35:02;;;;;;;18.35;12.68;;;;;;;7.20;53.00;96307.22;5025766;28;20525;-64
2022/03/03 10:37:32;;;;;;;19.50;13.18;;;;;;;7.22;56.91;96294.81;5033216;28;20072;-63
2022/03/03 10:40:01;;;;;;;21.50;12.85;;;;;;;7.02;54.23;96306.09;5039318;28;20151;-62
2022/03/03 10:42:31;;;;;;;15.85;11.85;;;;;;;7.32;52.23;96293.06;5028866;28;20421;-63
2022/03/03 10:45:08;;;;;;;19.90;12.75;;;;;;;7.66;52.48;96274.47;5037511;28;20320;-64
2022/03/03 10:47:36;;;;;;;20.02;12.45;;;;;;;7.40;52.62;96281.09;5025675;28;20072;-65
2022/03/03 10:50:07;;;;;;;18.65;12.10;;;;;;;7.66;51.33;96284.16;5025011;28;20400;-63
2022/03/03 10:52:36;;;;;;;;;;;;;;;7.94;47.58;96277.34;5020300;28;20539;-63
2022/03/03 10:55:07;;;;;;;18.17;12.45;;;;;;;8.09;47.99;96274.25;5022993;28;19960;-61
2022/03/03 10:57:39;;;;;;;16.88;12.00;;;;;;;7.93;48.28;96284.41;5029688;28;20073;-63
2022/03/03 11:00:10;;;;;;;19.95;13.10;;;;;;;7.70;50.16;96277.66;5024208;28;20438;-64
2022/03/03 11:02:40;;;;;;;17.02;12.15;;;;;;;8.18;49.71;96272.59;5028668;28;20076;-63
2022/03/03 11:05:12;;;;;;;20.63;12.85;;;;;;;7.73;50.45;96272.16;5043359;28;20087;-64
2022/03/03 11:07:42;;;;;;;17.88;12.90;;;;;;;7.96;49.03;96264.94;5036235;28;20057;-62
2022/03/03 11:10:14;;;;;;;15.73;11.32;;;;;;;7.72;47.09;96255.59;5023902;28;20065;-64
2022/03/03 11:12:44;;;;;;;17.95;12.30;;;;;;;7.89;47.04;96255.94;5024534;28;20060;-64
2022/03/03 11:15:13;;;;;;;16.53;11.93;;;;;;;7.81;47.19;96261.81;5026521;28;20057;-62
2022/03/03 11:17:42;;;;;;;16.95;11.93;;;;;;;8.01;46.46;96250.44;5002689;28;20037;-63
2022/03/03 11:20:14;;;;;;;18.75;10.35;;;;;;;7.91;44.62;96254.81;5011333;28;20068;-60
2022/03/03 11:22:43;;;;;;;15.85;11.43;;;;;;;8.03;45.17;96252.94;5025815;28;20065;-62
2022/03/03 11:25:14;;;;;;;16.25;11.20;;;;;;;8.07;45.63;96249.91;5023786;28;20072;-63
2022/03/03 11:27:44;;;;;;;20.45;12.02;;;;;;;8.34;44.85;96258.94;5021762;28;20509;-63